sensor_id;sensor_type;location;lat;lon;timestamp;temperature;humidity
3298;DHT22;1661;53.572;10.174;2022-07-05T00:01:54;16.80;72.10
3298;DHT22;1661;53.572;10.174;2022-07-05T00:04:21;16.80;71.80
3298;DHT22;1661;53.572;10.174;2022-07-05T00:06:50;16.80;71.50
3298;DHT22;1661;53.572;10.174;2022-07-05T00:09:37;16.80;72.10
3298;DHT22;1661;53.572;10.174;2022-07-05T00:12:04;16.80;71.80
3298;DHT22;1661;53.572;10.174;2022-07-05T00:14:32;16.80;71.10
3298;DHT22;1661;53.572;10.174;2022-07-05T00:16:59;16.80;71.10
3298;DHT22;1661;53.572;10.174;2022-07-05T00:19:29;16.80;71.50
3298;DHT22;1661;53.572;10.174;2022-07-05T00:21:56;16.80;71.40
3298;DHT22;1661;53.572;10.174;2022-07-05T00:24:23;16.80;71.40
3298;DHT22;1661;53.572;10.174;2022-07-05T00:26:49;16.80;71.20
3298;DHT22;1661;53.572;10.174;2022-07-05T00:29:16;16.80;72.00
3298;DHT22;1661;53.572;10.174;2022-07-05T00:31:44;16.80;72.60
3298;DHT22;1661;53.572;10.174;2022-07-05T00:34:11;16.80;72.20
3298;DHT22;1661;53.572;10.174;2022-07-05T00:36:38;16.70;71.90
3298;DHT22;1661;53.572;10.174;2022-07-05T00:39:06;16.70;71.70
3298;DHT22;1661;53.572;10.174;2022-07-05T00:41:33;16.70;71.50
3298;DHT22;1661;53.572;10.174;2022-07-05T00:44:01;16.70;72.00
3298;DHT22;1661;53.572;10.174;2022-07-05T00:46:28;16.70;72.30
3298;DHT22;1661;53.572;10.174;2022-07-05T00:49:00;16.70;72.40
3298;DHT22;1661;53.572;10.174;2022-07-05T00:51:30;16.60;72.70
3298;DHT22;1661;53.572;10.174;2022-07-05T00:53:57;16.60;73.10
3298;DHT22;1661;53.572;10.174;2022-07-05T00:56:25;16.60;72.70
3298;DHT22;1661;53.572;10.174;2022-07-05T00:58:52;16.60;72.80
3298;DHT22;1661;53.572;10.174;2022-07-05T01:01:20;16.50;73.60
3298;DHT22;1661;53.572;10.174;2022-07-05T01:03:47;16.50;72.90
3298;DHT22;1661;53.572;10.174;2022-07-05T01:06:15;16.50;73.50
3298;DHT22;1661;53.572;10.174;2022-07-05T01:08:44;16.50;73.90
3298;DHT22;1661;53.572;10.174;2022-07-05T01:11:12;16.40;73.30
3298;DHT22;1661;53.572;10.174;2022-07-05T01:13:39;16.40;72.60
3298;DHT22;1661;53.572;10.174;2022-07-05T01:16:07;16.40;73.90
3298;DHT22;1661;53.572;10.174;2022-07-05T01:18:34;16.40;73.70
3298;DHT22;1661;53.572;10.174;2022-07-05T01:21:02;16.40;74.30
3298;DHT22;1661;53.572;10.174;2022-07-05T01:23:32;16.30;74.40
3298;DHT22;1661;53.572;10.174;2022-07-05T01:26:00;16.30;74.00
3298;DHT22;1661;53.572;10.174;2022-07-05T01:28:28;16.30;73.60
3298;DHT22;1661;53.572;10.174;2022-07-05T01:30:55;16.30;73.20
3298;DHT22;1661;53.572;10.174;2022-07-05T01:33:27;16.30;74.50
3298;DHT22;1661;53.572;10.174;2022-07-05T01:35:57;16.20;75.20
3298;DHT22;1661;53.572;10.174;2022-07-05T01:38:25;16.20;75.10
3298;DHT22;1661;53.572;10.174;2022-07-05T01:40:56;16.20;75.30
3298;DHT22;1661;53.572;10.174;2022-07-05T01:43:23;16.20;74.90
3298;DHT22;1661;53.572;10.174;2022-07-05T01:45:50;16.20;74.90
3298;DHT22;1661;53.572;10.174;2022-07-05T01:48:19;16.20;74.90
3298;DHT22;1661;53.572;10.174;2022-07-05T01:50:48;16.20;74.60
3298;DHT22;1661;53.572;10.174;2022-07-05T01:53:17;16.20;73.80
3298;DHT22;1661;53.572;10.174;2022-07-05T01:55:47;16.10;72.90
3298;DHT22;1661;53.572;10.174;2022-07-05T01:58:15;16.10;73.10
3298;DHT22;1661;53.572;10.174;2022-07-05T02:00:44;16.20;73.60
3298;DHT22;1661;53.572;10.174;2022-07-05T02:03:11;16.10;73.90
3298;DHT22;1661;53.572;10.174;2022-07-05T02:05:39;16.10;73.90
3298;DHT22;1661;53.572;10.174;2022-07-05T02:08:06;16.10;74.10
3298;DHT22;1661;53.572;10.174;2022-07-05T02:10:34;16.10;74.30
3298;DHT22;1661;53.572;10.174;2022-07-05T02:13:01;16.10;74.60
3298;DHT22;1661;53.572;10.174;2022-07-05T02:15:32;16.00;74.80
3298;DHT22;1661;53.572;10.174;2022-07-05T02:17:59;16.00;75.10
3298;DHT22;1661;53.572;10.174;2022-07-05T02:20:27;15.90;75.30
3298;DHT22;1661;53.572;10.174;2022-07-05T02:22:54;15.90;75.50
3298;DHT22;1661;53.572;10.174;2022-07-05T02:25:21;15.80;75.30
3298;DHT22;1661;53.572;10.174;2022-07-05T02:27:48;15.80;75.50
3298;DHT22;1661;53.572;10.174;2022-07-05T02:30:15;15.70;75.70
3298;DHT22;1661;53.572;10.174;2022-07-05T02:32:43;15.70;76.50
3298;DHT22;1661;53.572;10.174;2022-07-05T02:35:10;15.70;77.00
3298;DHT22;1661;53.572;10.174;2022-07-05T02:37:37;15.60;76.90
3298;DHT22;1661;53.572;10.174;2022-07-05T02:40:06;15.60;76.70
3298;DHT22;1661;53.572;10.174;2022-07-05T02:42:33;15.50;75.90
3298;DHT22;1661;53.572;10.174;2022-07-05T02:45:00;15.50;76.40
3298;DHT22;1661;53.572;10.174;2022-07-05T02:47:29;15.40;76.50
3298;DHT22;1661;53.572;10.174;2022-07-05T02:50:03;15.40;77.00
3298;DHT22;1661;53.572;10.174;2022-07-05T02:52:30;15.40;77.10
3298;DHT22;1661;53.572;10.174;2022-07-05T02:54:57;15.30;76.90
3298;DHT22;1661;53.572;10.174;2022-07-05T02:57:24;15.30;76.90
3298;DHT22;1661;53.572;10.174;2022-07-05T02:59:52;15.30;77.30
3298;DHT22;1661;53.572;10.174;2022-07-05T03:02:19;15.20;76.90
3298;DHT22;1661;53.572;10.174;2022-07-05T03:04:46;15.20;77.30
3298;DHT22;1661;53.572;10.174;2022-07-05T03:07:14;15.20;77.60
3298;DHT22;1661;53.572;10.174;2022-07-05T03:09:40;15.20;77.70
3298;DHT22;1661;53.572;10.174;2022-07-05T03:12:07;15.10;77.10
3298;DHT22;1661;53.572;10.174;2022-07-05T03:14:34;15.10;77.50
3298;DHT22;1661;53.572;10.174;2022-07-05T03:17:01;15.10;77.90
3298;DHT22;1661;53.572;10.174;2022-07-05T03:19:30;15.00;78.00
3298;DHT22;1661;53.572;10.174;2022-07-05T03:21:57;15.00;78.00
3298;DHT22;1661;53.572;10.174;2022-07-05T03:24:25;15.00;77.60
3298;DHT22;1661;53.572;10.174;2022-07-05T03:26:51;15.00;77.80
3298;DHT22;1661;53.572;10.174;2022-07-05T03:29:18;14.90;78.10
3298;DHT22;1661;53.572;10.174;2022-07-05T03:31:45;15.00;78.40
3298;DHT22;1661;53.572;10.174;2022-07-05T03:34:12;14.90;79.00
3298;DHT22;1661;53.572;10.174;2022-07-05T03:36:38;14.90;79.20
3298;DHT22;1661;53.572;10.174;2022-07-05T03:39:05;14.80;79.10
3298;DHT22;1661;53.572;10.174;2022-07-05T03:41:33;14.80;78.70
3298;DHT22;1661;53.572;10.174;2022-07-05T03:44:00;14.80;78.90
3298;DHT22;1661;53.572;10.174;2022-07-05T03:46:29;14.80;78.60
3298;DHT22;1661;53.572;10.174;2022-07-05T03:48:56;14.80;79.00
3298;DHT22;1661;53.572;10.174;2022-07-05T03:51:23;14.80;79.10
3298;DHT22;1661;53.572;10.174;2022-07-05T03:53:50;14.80;79.50
3298;DHT22;1661;53.572;10.174;2022-07-05T03:56:16;14.80;79.10
3298;DHT22;1661;53.572;10.174;2022-07-05T03:58:47;14.80;79.60
3298;DHT22;1661;53.572;10.174;2022-07-05T04:01:14;14.80;79.40
3298;DHT22;1661;53.572;10.174;2022-07-05T04:03:40;14.80;79.70
3298;DHT22;1661;53.572;10.174;2022-07-05T04:06:08;14.80;79.60
3298;DHT22;1661;53.572;10.174;2022-07-05T04:08:35;14.80;79.40
3298;DHT22;1661;53.572;10.174;2022-07-05T04:11:02;14.80;79.90
3298;DHT22;1661;53.572;10.174;2022-07-05T04:13:29;14.80;80.10
3298;DHT22;1661;53.572;10.174;2022-07-05T04:15:57;14.80;80.60
3298;DHT22;1661;53.572;10.174;2022-07-05T04:18:24;14.80;81.20
3298;DHT22;1661;53.572;10.174;2022-07-05T04:20:51;14.70;81.30
3298;DHT22;1661;53.572;10.174;2022-07-05T04:23:17;14.70;81.70
3298;DHT22;1661;53.572;10.174;2022-07-05T04:25:44;14.70;81.40
3298;DHT22;1661;53.572;10.174;2022-07-05T04:28:11;14.70;82.10
3298;DHT22;1661;53.572;10.174;2022-07-05T04:30:38;14.70;82.50
3298;DHT22;1661;53.572;10.174;2022-07-05T04:33:06;14.70;82.40
3298;DHT22;1661;53.572;10.174;2022-07-05T04:35:32;14.70;83.00
3298;DHT22;1661;53.572;10.174;2022-07-05T04:37:59;14.60;82.60
3298;DHT22;1661;53.572;10.174;2022-07-05T04:40:26;14.70;82.50
3298;DHT22;1661;53.572;10.174;2022-07-05T04:42:53;14.70;82.10
3298;DHT22;1661;53.572;10.174;2022-07-05T04:45:23;14.70;83.00
3298;DHT22;1661;53.572;10.174;2022-07-05T04:47:50;14.70;83.80
3298;DHT22;1661;53.572;10.174;2022-07-05T04:50:18;14.70;84.20
3298;DHT22;1661;53.572;10.174;2022-07-05T04:52:44;14.80;84.30
3298;DHT22;1661;53.572;10.174;2022-07-05T04:55:14;14.80;84.50
3298;DHT22;1661;53.572;10.174;2022-07-05T04:57:41;14.80;84.70
3298;DHT22;1661;53.572;10.174;2022-07-05T05:00:10;14.80;84.70
3298;DHT22;1661;53.572;10.174;2022-07-05T05:02:38;14.80;84.80
3298;DHT22;1661;53.572;10.174;2022-07-05T05:05:05;14.90;84.80
3298;DHT22;1661;53.572;10.174;2022-07-05T05:07:36;15.00;84.70
3298;DHT22;1661;53.572;10.174;2022-07-05T05:10:07;15.00;84.50
3298;DHT22;1661;53.572;10.174;2022-07-05T05:12:34;15.10;84.20
3298;DHT22;1661;53.572;10.174;2022-07-05T05:15:01;15.10;84.10
3298;DHT22;1661;53.572;10.174;2022-07-05T05:17:34;15.20;84.10
3298;DHT22;1661;53.572;10.174;2022-07-05T05:20:03;15.20;83.90
3298;DHT22;1661;53.572;10.174;2022-07-05T05:22:34;15.30;83.60
3298;DHT22;1661;53.572;10.174;2022-07-05T05:25:00;15.30;83.50
3298;DHT22;1661;53.572;10.174;2022-07-05T05:27:27;15.40;83.50
3298;DHT22;1661;53.572;10.174;2022-07-05T05:29:54;15.50;83.30
3298;DHT22;1661;53.572;10.174;2022-07-05T05:32:21;15.60;82.70
3298;DHT22;1661;53.572;10.174;2022-07-05T05:34:48;15.60;81.80
3298;DHT22;1661;53.572;10.174;2022-07-05T05:37:14;15.60;81.20
3298;DHT22;1661;53.572;10.174;2022-07-05T05:39:43;15.70;80.60
3298;DHT22;1661;53.572;10.174;2022-07-05T05:42:09;15.80;80.20
3298;DHT22;1661;53.572;10.174;2022-07-05T05:44:36;15.90;79.90
3298;DHT22;1661;53.572;10.174;2022-07-05T05:47:03;15.90;78.90
3298;DHT22;1661;53.572;10.174;2022-07-05T05:49:30;16.00;78.30
3298;DHT22;1661;53.572;10.174;2022-07-05T05:51:57;16.10;77.80
3298;DHT22;1661;53.572;10.174;2022-07-05T05:54:24;16.10;77.00
3298;DHT22;1661;53.572;10.174;2022-07-05T05:56:52;16.20;76.90
3298;DHT22;1661;53.572;10.174;2022-07-05T05:59:18;16.30;76.40
3298;DHT22;1661;53.572;10.174;2022-07-05T06:01:45;16.40;75.70
3298;DHT22;1661;53.572;10.174;2022-07-05T06:04:18;16.40;75.60
3298;DHT22;1661;53.572;10.174;2022-07-05T06:06:45;16.50;75.40
3298;DHT22;1661;53.572;10.174;2022-07-05T06:09:11;16.60;74.60
3298;DHT22;1661;53.572;10.174;2022-07-05T06:11:38;16.60;74.60
3298;DHT22;1661;53.572;10.174;2022-07-05T06:14:06;16.80;74.40
3298;DHT22;1661;53.572;10.174;2022-07-05T06:16:34;16.90;74.30
3298;DHT22;1661;53.572;10.174;2022-07-05T06:19:03;17.00;73.90
3298;DHT22;1661;53.572;10.174;2022-07-05T06:21:30;17.20;73.50
3298;DHT22;1661;53.572;10.174;2022-07-05T06:23:56;17.30;73.00
3298;DHT22;1661;53.572;10.174;2022-07-05T06:26:26;17.40;72.10
3298;DHT22;1661;53.572;10.174;2022-07-05T06:28:53;17.50;71.90
3298;DHT22;1661;53.572;10.174;2022-07-05T06:31:21;17.60;72.20
3298;DHT22;1661;53.572;10.174;2022-07-05T06:33:48;17.70;71.80
3298;DHT22;1661;53.572;10.174;2022-07-05T06:36:17;17.80;70.20
3298;DHT22;1661;53.572;10.174;2022-07-05T06:38:44;17.90;70.60
3298;DHT22;1661;53.572;10.174;2022-07-05T06:41:10;18.00;70.70
3298;DHT22;1661;53.572;10.174;2022-07-05T06:43:37;18.00;70.50
3298;DHT22;1661;53.572;10.174;2022-07-05T06:46:07;18.10;70.20
3298;DHT22;1661;53.572;10.174;2022-07-05T06:48:35;18.10;69.60
3298;DHT22;1661;53.572;10.174;2022-07-05T06:51:01;18.20;69.70
3298;DHT22;1661;53.572;10.174;2022-07-05T06:53:28;18.30;70.00
3298;DHT22;1661;53.572;10.174;2022-07-05T06:55:55;18.50;69.90
3298;DHT22;1661;53.572;10.174;2022-07-05T06:58:27;18.70;68.80
3298;DHT22;1661;53.572;10.174;2022-07-05T07:00:54;18.90;68.40
3298;DHT22;1661;53.572;10.174;2022-07-05T07:03:21;19.10;68.10
3298;DHT22;1661;53.572;10.174;2022-07-05T07:05:49;19.30;66.60
3298;DHT22;1661;53.572;10.174;2022-07-05T07:08:16;19.40;65.50
3298;DHT22;1661;53.572;10.174;2022-07-05T07:11:00;19.40;65.50
3298;DHT22;1661;53.572;10.174;2022-07-05T07:13:27;19.50;65.60
3298;DHT22;1661;53.572;10.174;2022-07-05T07:15:53;19.60;65.10
3298;DHT22;1661;53.572;10.174;2022-07-05T07:18:20;19.80;64.50
3298;DHT22;1661;53.572;10.174;2022-07-05T07:20:48;19.90;64.40
3298;DHT22;1661;53.572;10.174;2022-07-05T07:23:15;20.10;63.90
3298;DHT22;1661;53.572;10.174;2022-07-05T07:25:42;20.20;63.30
3298;DHT22;1661;53.572;10.174;2022-07-05T07:28:09;20.40;61.60
3298;DHT22;1661;53.572;10.174;2022-07-05T07:30:36;20.40;62.80
3298;DHT22;1661;53.572;10.174;2022-07-05T07:33:03;20.50;62.40
3298;DHT22;1661;53.572;10.174;2022-07-05T07:35:30;20.60;61.60
3298;DHT22;1661;53.572;10.174;2022-07-05T07:37:59;20.70;61.10
3298;DHT22;1661;53.572;10.174;2022-07-05T07:40:25;20.80;59.50
3298;DHT22;1661;53.572;10.174;2022-07-05T07:42:52;20.90;58.60
3298;DHT22;1661;53.572;10.174;2022-07-05T07:45:19;21.10;59.30
3298;DHT22;1661;53.572;10.174;2022-07-05T07:47:45;21.10;58.30
3298;DHT22;1661;53.572;10.174;2022-07-05T07:50:12;21.30;58.10
3298;DHT22;1661;53.572;10.174;2022-07-05T07:52:41;21.40;55.70
3298;DHT22;1661;53.572;10.174;2022-07-05T07:55:10;21.50;56.50
3298;DHT22;1661;53.572;10.174;2022-07-05T07:57:36;21.60;55.90
3298;DHT22;1661;53.572;10.174;2022-07-05T08:00:04;21.70;55.40
3298;DHT22;1661;53.572;10.174;2022-07-05T08:02:31;21.80;53.80
3298;DHT22;1661;53.572;10.174;2022-07-05T08:04:58;21.80;55.90
3298;DHT22;1661;53.572;10.174;2022-07-05T08:07:25;21.80;54.60
3298;DHT22;1661;53.572;10.174;2022-07-05T08:09:52;21.80;55.50
3298;DHT22;1661;53.572;10.174;2022-07-05T08:12:23;21.60;54.70
3298;DHT22;1661;53.572;10.174;2022-07-05T08:14:50;21.50;53.90
3298;DHT22;1661;53.572;10.174;2022-07-05T08:17:16;21.50;54.80
3298;DHT22;1661;53.572;10.174;2022-07-05T08:19:48;21.60;54.50
3298;DHT22;1661;53.572;10.174;2022-07-05T08:22:33;21.70;53.20
3298;DHT22;1661;53.572;10.174;2022-07-05T08:24:59;21.80;52.40
3298;DHT22;1661;53.572;10.174;2022-07-05T08:27:28;21.90;52.50
3298;DHT22;1661;53.572;10.174;2022-07-05T08:29:54;22.10;47.10
3298;DHT22;1661;53.572;10.174;2022-07-05T08:32:21;22.20;47.00
3298;DHT22;1661;53.572;10.174;2022-07-05T08:34:48;22.40;45.70
3298;DHT22;1661;53.572;10.174;2022-07-05T08:37:14;22.60;44.70
3298;DHT22;1661;53.572;10.174;2022-07-05T08:39:41;22.80;45.20
3298;DHT22;1661;53.572;10.174;2022-07-05T08:42:09;22.90;44.00
3298;DHT22;1661;53.572;10.174;2022-07-05T08:44:38;23.10;43.60
3298;DHT22;1661;53.572;10.174;2022-07-05T08:47:09;23.30;45.00
3298;DHT22;1661;53.572;10.174;2022-07-05T08:49:38;23.40;44.40
3298;DHT22;1661;53.572;10.174;2022-07-05T08:52:10;23.50;45.50
3298;DHT22;1661;53.572;10.174;2022-07-05T08:54:37;23.50;44.40
3298;DHT22;1661;53.572;10.174;2022-07-05T08:57:04;23.60;44.20
3298;DHT22;1661;53.572;10.174;2022-07-05T08:59:31;23.50;42.10
3298;DHT22;1661;53.572;10.174;2022-07-05T09:02:00;23.50;42.50
3298;DHT22;1661;53.572;10.174;2022-07-05T09:04:30;23.60;42.50
3298;DHT22;1661;53.572;10.174;2022-07-05T09:07:03;23.70;43.70
3298;DHT22;1661;53.572;10.174;2022-07-05T09:09:33;23.90;43.60
3298;DHT22;1661;53.572;10.174;2022-07-05T09:12:00;24.10;43.80
3298;DHT22;1661;53.572;10.174;2022-07-05T09:14:27;24.30;43.00
3298;DHT22;1661;53.572;10.174;2022-07-05T09:16:54;24.40;42.90
3298;DHT22;1661;53.572;10.174;2022-07-05T09:19:24;24.30;42.90
3298;DHT22;1661;53.572;10.174;2022-07-05T09:22:00;24.50;43.00
3298;DHT22;1661;53.572;10.174;2022-07-05T09:24:30;24.50;43.60
3298;DHT22;1661;53.572;10.174;2022-07-05T09:27:04;24.50;43.40
3298;DHT22;1661;53.572;10.174;2022-07-05T09:29:31;24.20;43.30
3298;DHT22;1661;53.572;10.174;2022-07-05T09:31:58;24.10;44.80
3298;DHT22;1661;53.572;10.174;2022-07-05T09:34:28;24.20;44.90
3298;DHT22;1661;53.572;10.174;2022-07-05T09:36:57;23.90;44.20
3298;DHT22;1661;53.572;10.174;2022-07-05T09:39:40;23.80;44.20
3298;DHT22;1661;53.572;10.174;2022-07-05T09:42:15;23.70;44.30
3298;DHT22;1661;53.572;10.174;2022-07-05T09:44:48;23.70;44.60
3298;DHT22;1661;53.572;10.174;2022-07-05T09:47:16;23.60;44.60
3298;DHT22;1661;53.572;10.174;2022-07-05T09:49:46;23.50;45.50
3298;DHT22;1661;53.572;10.174;2022-07-05T09:52:26;23.50;47.10
3298;DHT22;1661;53.572;10.174;2022-07-05T09:55:04;23.40;46.50
3298;DHT22;1661;53.572;10.174;2022-07-05T09:57:34;23.30;47.00
3298;DHT22;1661;53.572;10.174;2022-07-05T10:00:05;23.20;47.10
3298;DHT22;1661;53.572;10.174;2022-07-05T10:02:37;23.20;48.10
3298;DHT22;1661;53.572;10.174;2022-07-05T10:05:10;23.30;48.60
3298;DHT22;1661;53.572;10.174;2022-07-05T10:07:42;23.10;46.80
3298;DHT22;1661;53.572;10.174;2022-07-05T10:10:12;23.10;48.80
3298;DHT22;1661;53.572;10.174;2022-07-05T10:12:39;23.10;47.10
3298;DHT22;1661;53.572;10.174;2022-07-05T10:15:09;23.00;48.80
3298;DHT22;1661;53.572;10.174;2022-07-05T10:17:38;23.20;47.20
3298;DHT22;1661;53.572;10.174;2022-07-05T10:20:14;23.40;46.90
3298;DHT22;1661;53.572;10.174;2022-07-05T10:22:43;23.60;46.00
3298;DHT22;1661;53.572;10.174;2022-07-05T10:25:10;23.80;43.90
3298;DHT22;1661;53.572;10.174;2022-07-05T10:27:37;24.10;42.60
3298;DHT22;1661;53.572;10.174;2022-07-05T10:30:07;24.10;40.10
3298;DHT22;1661;53.572;10.174;2022-07-05T10:32:34;24.10;41.40
3298;DHT22;1661;53.572;10.174;2022-07-05T10:35:02;24.30;42.00
3298;DHT22;1661;53.572;10.174;2022-07-05T10:37:32;24.60;43.40
3298;DHT22;1661;53.572;10.174;2022-07-05T10:40:00;24.80;43.00
3298;DHT22;1661;53.572;10.174;2022-07-05T10:42:31;25.00;45.00
3298;DHT22;1661;53.572;10.174;2022-07-05T10:44:59;25.00;43.40
3298;DHT22;1661;53.572;10.174;2022-07-05T10:47:26;24.90;44.50
3298;DHT22;1661;53.572;10.174;2022-07-05T10:50:03;24.90;44.80
3298;DHT22;1661;53.572;10.174;2022-07-05T10:52:31;25.00;44.60
3298;DHT22;1661;53.572;10.174;2022-07-05T10:55:17;25.10;42.10
3298;DHT22;1661;53.572;10.174;2022-07-05T10:57:44;25.10;41.90
3298;DHT22;1661;53.572;10.174;2022-07-05T11:00:31;25.20;41.90
3298;DHT22;1661;53.572;10.174;2022-07-05T11:03:06;25.40;43.80
3298;DHT22;1661;53.572;10.174;2022-07-05T11:05:33;25.50;41.50
3298;DHT22;1661;53.572;10.174;2022-07-05T11:08:03;25.80;40.80
3298;DHT22;1661;53.572;10.174;2022-07-05T11:10:30;26.00;41.80
3298;DHT22;1661;53.572;10.174;2022-07-05T11:12:58;26.20;41.10
3298;DHT22;1661;53.572;10.174;2022-07-05T11:15:25;26.30;41.40
3298;DHT22;1661;53.572;10.174;2022-07-05T11:18:14;26.30;41.50
3298;DHT22;1661;53.572;10.174;2022-07-05T11:20:40;26.30;41.70
3298;DHT22;1661;53.572;10.174;2022-07-05T11:23:11;26.30;41.30
3298;DHT22;1661;53.572;10.174;2022-07-05T11:25:40;26.30;42.80
3298;DHT22;1661;53.572;10.174;2022-07-05T11:28:16;26.10;39.70
3298;DHT22;1661;53.572;10.174;2022-07-05T11:30:50;25.90;40.40
3298;DHT22;1661;53.572;10.174;2022-07-05T11:33:44;25.50;40.60
3298;DHT22;1661;53.572;10.174;2022-07-05T11:36:21;25.30;41.30
3298;DHT22;1661;53.572;10.174;2022-07-05T11:39:12;25.20;42.20
3298;DHT22;1661;53.572;10.174;2022-07-05T11:41:43;25.20;42.50
3298;DHT22;1661;53.572;10.174;2022-07-05T11:44:10;25.20;42.50
3298;DHT22;1661;53.572;10.174;2022-07-05T11:46:37;25.20;43.10
3298;DHT22;1661;53.572;10.174;2022-07-05T11:49:04;25.30;42.80
3298;DHT22;1661;53.572;10.174;2022-07-05T11:51:34;25.20;41.90
3298;DHT22;1661;53.572;10.174;2022-07-05T11:54:02;25.20;42.30
3298;DHT22;1661;53.572;10.174;2022-07-05T11:56:31;25.30;42.80
3298;DHT22;1661;53.572;10.174;2022-07-05T11:58:58;25.50;43.40
3298;DHT22;1661;53.572;10.174;2022-07-05T12:01:24;25.60;42.20
3298;DHT22;1661;53.572;10.174;2022-07-05T12:03:57;25.70;42.50
3298;DHT22;1661;53.572;10.174;2022-07-05T12:06:24;26.00;43.60
3298;DHT22;1661;53.572;10.174;2022-07-05T12:09:04;26.30;41.80
3298;DHT22;1661;53.572;10.174;2022-07-05T12:11:32;26.50;40.40
3298;DHT22;1661;53.572;10.174;2022-07-05T12:14:21;26.40;40.10
3298;DHT22;1661;53.572;10.174;2022-07-05T12:16:48;26.30;41.50
3298;DHT22;1661;53.572;10.174;2022-07-05T12:19:24;26.10;40.80
3298;DHT22;1661;53.572;10.174;2022-07-05T12:21:52;25.90;41.60
3298;DHT22;1661;53.572;10.174;2022-07-05T12:24:19;25.80;42.70
3298;DHT22;1661;53.572;10.174;2022-07-05T12:26:48;25.70;42.80
3298;DHT22;1661;53.572;10.174;2022-07-05T12:29:16;25.70;43.00
3298;DHT22;1661;53.572;10.174;2022-07-05T12:31:58;25.70;42.40
3298;DHT22;1661;53.572;10.174;2022-07-05T12:34:25;25.50;42.40
3298;DHT22;1661;53.572;10.174;2022-07-05T12:36:52;25.50;43.60
3298;DHT22;1661;53.572;10.174;2022-07-05T12:39:19;25.60;42.10
3298;DHT22;1661;53.572;10.174;2022-07-05T12:41:47;25.70;41.10
3298;DHT22;1661;53.572;10.174;2022-07-05T12:44:18;25.70;41.00
3298;DHT22;1661;53.572;10.174;2022-07-05T12:46:44;25.70;40.80
3298;DHT22;1661;53.572;10.174;2022-07-05T12:49:14;25.70;42.60
3298;DHT22;1661;53.572;10.174;2022-07-05T12:51:42;25.70;42.40
3298;DHT22;1661;53.572;10.174;2022-07-05T12:54:18;25.70;42.10
3298;DHT22;1661;53.572;10.174;2022-07-05T12:57:05;25.70;42.10
3298;DHT22;1661;53.572;10.174;2022-07-05T13:00:00;25.90;43.20
3298;DHT22;1661;53.572;10.174;2022-07-05T13:02:34;25.90;42.30
3298;DHT22;1661;53.572;10.174;2022-07-05T13:05:01;26.20;42.10
3298;DHT22;1661;53.572;10.174;2022-07-05T13:07:28;26.40;41.50
3298;DHT22;1661;53.572;10.174;2022-07-05T13:09:54;26.50;40.90
3298;DHT22;1661;53.572;10.174;2022-07-05T13:12:22;26.50;40.40
3298;DHT22;1661;53.572;10.174;2022-07-05T13:14:51;26.40;41.70
3298;DHT22;1661;53.572;10.174;2022-07-05T13:17:21;26.40;42.30
3298;DHT22;1661;53.572;10.174;2022-07-05T13:19:50;26.30;42.90
3298;DHT22;1661;53.572;10.174;2022-07-05T13:22:17;26.10;41.80
3298;DHT22;1661;53.572;10.174;2022-07-05T13:24:45;26.10;42.20
3298;DHT22;1661;53.572;10.174;2022-07-05T13:27:12;26.10;42.60
3298;DHT22;1661;53.572;10.174;2022-07-05T13:29:41;25.90;43.70
3298;DHT22;1661;53.572;10.174;2022-07-05T13:32:08;26.00;43.60
3298;DHT22;1661;53.572;10.174;2022-07-05T13:34:35;26.00;43.40
3298;DHT22;1661;53.572;10.174;2022-07-05T13:37:01;25.90;43.90
3298;DHT22;1661;53.572;10.174;2022-07-05T13:39:28;25.80;43.60
3298;DHT22;1661;53.572;10.174;2022-07-05T13:41:58;25.70;43.50
3298;DHT22;1661;53.572;10.174;2022-07-05T13:44:25;25.50;44.10
3298;DHT22;1661;53.572;10.174;2022-07-05T13:46:56;25.50;45.00
3298;DHT22;1661;53.572;10.174;2022-07-05T13:49:23;25.40;43.90
3298;DHT22;1661;53.572;10.174;2022-07-05T13:51:49;25.30;43.80
3298;DHT22;1661;53.572;10.174;2022-07-05T13:54:16;25.10;44.70
3298;DHT22;1661;53.572;10.174;2022-07-05T13:56:43;24.90;45.70
3298;DHT22;1661;53.572;10.174;2022-07-05T13:59:10;24.60;47.20
3298;DHT22;1661;53.572;10.174;2022-07-05T14:01:36;24.30;48.60
3298;DHT22;1661;53.572;10.174;2022-07-05T14:04:06;24.20;50.70
3298;DHT22;1661;53.572;10.174;2022-07-05T14:06:33;23.90;50.10
3298;DHT22;1661;53.572;10.174;2022-07-05T14:09:03;23.70;51.00
3298;DHT22;1661;53.572;10.174;2022-07-05T14:11:30;23.50;50.50
3298;DHT22;1661;53.572;10.174;2022-07-05T14:13:57;22.90;51.60
3298;DHT22;1661;53.572;10.174;2022-07-05T14:16:24;22.60;53.10
3298;DHT22;1661;53.572;10.174;2022-07-05T14:18:53;22.60;53.30
3298;DHT22;1661;53.572;10.174;2022-07-05T14:21:23;22.50;55.60
3298;DHT22;1661;53.572;10.174;2022-07-05T14:23:49;22.60;55.00
3298;DHT22;1661;53.572;10.174;2022-07-05T14:26:18;22.70;55.30
3298;DHT22;1661;53.572;10.174;2022-07-05T14:28:45;22.90;55.00
3298;DHT22;1661;53.572;10.174;2022-07-05T14:31:15;22.90;53.70
3298;DHT22;1661;53.572;10.174;2022-07-05T14:33:41;23.00;53.40
3298;DHT22;1661;53.572;10.174;2022-07-05T14:36:10;23.00;53.30
3298;DHT22;1661;53.572;10.174;2022-07-05T14:38:39;23.00;52.50
3298;DHT22;1661;53.572;10.174;2022-07-05T14:41:13;23.10;52.40
3298;DHT22;1661;53.572;10.174;2022-07-05T14:43:44;22.90;53.50
3298;DHT22;1661;53.572;10.174;2022-07-05T14:46:13;22.90;54.00
3298;DHT22;1661;53.572;10.174;2022-07-05T14:48:43;22.80;53.80
3298;DHT22;1661;53.572;10.174;2022-07-05T14:51:10;22.70;54.10
3298;DHT22;1661;53.572;10.174;2022-07-05T14:53:38;22.60;54.40
3298;DHT22;1661;53.572;10.174;2022-07-05T14:56:07;22.20;54.10
3298;DHT22;1661;53.572;10.174;2022-07-05T14:58:34;22.00;55.50
3298;DHT22;1661;53.572;10.174;2022-07-05T15:01:00;22.00;56.60
3298;DHT22;1661;53.572;10.174;2022-07-05T15:03:30;22.10;55.70
3298;DHT22;1661;53.572;10.174;2022-07-05T15:05:56;22.20;56.50
3298;DHT22;1661;53.572;10.174;2022-07-05T15:08:23;22.10;56.40
3298;DHT22;1661;53.572;10.174;2022-07-05T15:10:54;22.30;57.00
3298;DHT22;1661;53.572;10.174;2022-07-05T15:13:21;22.50;56.20
3298;DHT22;1661;53.572;10.174;2022-07-05T15:15:54;22.80;56.90
3298;DHT22;1661;53.572;10.174;2022-07-05T15:18:22;23.00;55.60
3298;DHT22;1661;53.572;10.174;2022-07-05T15:20:49;23.20;54.00
3298;DHT22;1661;53.572;10.174;2022-07-05T15:23:22;23.40;54.00
3298;DHT22;1661;53.572;10.174;2022-07-05T15:25:54;23.30;54.00
3298;DHT22;1661;53.572;10.174;2022-07-05T15:28:23;22.90;53.10
3298;DHT22;1661;53.572;10.174;2022-07-05T15:30:50;22.60;53.20
3298;DHT22;1661;53.572;10.174;2022-07-05T15:33:18;22.50;56.30
3298;DHT22;1661;53.572;10.174;2022-07-05T15:35:44;22.40;54.80
3298;DHT22;1661;53.572;10.174;2022-07-05T15:38:11;22.40;55.20
3298;DHT22;1661;53.572;10.174;2022-07-05T15:40:38;22.50;56.20
3298;DHT22;1661;53.572;10.174;2022-07-05T15:43:13;22.30;56.30
3298;DHT22;1661;53.572;10.174;2022-07-05T15:45:40;22.50;57.30
3298;DHT22;1661;53.572;10.174;2022-07-05T15:48:07;22.60;55.20
3298;DHT22;1661;53.572;10.174;2022-07-05T15:50:33;22.70;56.10
3298;DHT22;1661;53.572;10.174;2022-07-05T15:53:00;23.00;56.00
3298;DHT22;1661;53.572;10.174;2022-07-05T15:55:29;23.00;55.70